ESNS Airport Information

Runway Information
Runway 10 Length 6890 ft width 148 ft
Elevation 157 ft Threshold 0 ft Heading 106
Runway 28 Length 6890 ft Width 148 ft
Elevation 125 ft Threshold 0 ft Heading 286
Airport Frequencies
Type TWR Name TWR Frequency 122.05 MHZ
Airport Navaids
Type VOR-DME Name Skelleftea Frequency 113400 KHZ
Airport Weather Information & NOTAM
ADDS - METARS form results

(0351 UTC 18 November 2018)
Data provider http://aviationweather.gov/metar/data/
 
METAR text: ESNS 180320Z AUTO 01006KT 330V040 9999 BKN021/// 03/M00 Q1043
Conditions at: ESNS (SKELLEFTEA AIRPO, SE) observed 0320 UTC 18 November 2018
Temperature: 3.0°C (37°F)
Dewpoint: 0.0°C (32°F) [RH = 81%]
Pressure (altimeter): 30.80 inches Hg (1043.0 mb)
Winds: from the N (10 degrees) at 7 MPH (6 knots; 3.1 m/s)
Visibility: 6 or more miles (10+ km)
Ceiling: 2100 feet AGL
Clouds: broken clouds at 2100 feet AGL
Weather: no significant weather observed at this time